Nearby METAR Reports

 

KSJC - San Jose, California, USA
Distance from station: NE 14km
Actualización: 25/06/2018 09:53
Parcialmente nuboso
Parcialmente nuboso
 Viento del SE
Viento: SE 11 km/h
Temperatura: 21°C
Rocío: 13°C
Humedad: 60%
Barómetro: 1014.9 hPa
Clouds: Parcialmente nuboso
Visibility: 16 km
Cloud details: Few Clouds 427 m
Parcialmente nuboso 853 m
2018/06/25 16:53 KSJC 251653Z 13006KT 10SM FEW014 SCT028 21/13 A2997 RMK AO2 SLP149 T02060133
KNUQ - Moffett Nas/Mtn, California, USA
Distance from station: N 14km
Actualización: 25/06/2018 10:16
Parcialmente nuboso
Parcialmente nuboso
 Viento del N
Viento: N 9 km/h
Temperatura: 21°C
Rocío: 13°C
Humedad: 60%
Barómetro: 1015.2 hPa
Clouds: Parcialmente nuboso
Visibility: 16 km
Cloud details: Parcialmente nuboso 823 m
2018/06/25 17:16 KNUQ 251716Z 36005KT 10SM SCT027 21/13 A2998 RMK AO2 T02060133
 
KPAO - Palo Alto, California, USA
Distance from station: NNO 23km
Actualización: 25/06/2018 09:47
Parcialmente nuboso
Parcialmente nuboso
 Viento del OSO
Viento: OSO 15 km/h
Temperatura: 20°C
Rocío: 13°C
Humedad: 64%
Barómetro: 1015.2 hPa
Clouds: Parcialmente nuboso
Visibility: 16 km
Cloud details: Parcialmente nuboso 610 m
2018/06/25 16:47 KPAO 251647Z 24008KT 10SM SCT020 20/13 A2998
KRHV - San Jose/Reid, California, USA
Distance from station: ENE 19km
Actualización: 25/06/2018 09:57
Few Clouds
Few Clouds
 Viento del S
Viento: S 19 km/h
Temperatura: 21°C
Rocío: 13°C
Humedad: 60%
Barómetro: 1014.6 hPa
Clouds: Few Clouds
Visibility: 16 km
Cloud details: Few Clouds 914 m
2018/06/25 16:57 KRHV 251657Z 18010KT 10SM FEW030 21/13 A2996
 
KOAK - Oakland, California, USA
Distance from station: NNO 50km
Actualización: 25/06/2018 10:25
Parcialmente nuboso
Parcialmente nuboso
 Viento del O
Viento: O 13 km/h
Temperatura: 17°C
Rocío: 13°C
Humedad: 77%
Barómetro: 1015.2 hPa
Clouds: Parcialmente nuboso
Visibility: 16 km
Cloud details: Few Clouds 274 m
Parcialmente nuboso 457 m
2018/06/25 17:25 KOAK 251725Z 28007KT 10SM FEW009 SCT015 17/13 A2998 RMK AO2 T01720128
KSQL - San Carlos Airpo, California, USA
Distance from station: NO 34km
Actualización: 25/06/2018 08:47
NOT Current
Muy nuboso
Muy nuboso
 Viento del OSO
Viento: OSO 9 km/h
Temperatura: 17°C
Rocío: 12°C
Humedad: 73%
Barómetro: 1015.2 hPa
Clouds: Muy nuboso
Visibility: 16 km
Cloud details: Muy nuboso 762 m
2018/06/25 15:47 KSQL 251547Z 25005KT 10SM BKN025 17/12 A2998
 
KSFO - San Francisco, California, USA
Distance from station: NO 49km
Actualización: 25/06/2018 09:56
Parcialmente nuboso
Parcialmente nuboso
 Viento del NE
Viento: NE 7 km/h
Temperatura: 20°C
Rocío: 12°C
Humedad: 60%
Barómetro: 1014.9 hPa
Clouds: Parcialmente nuboso
Visibility: 16 km
Cloud details: Few Clouds 488 m
Parcialmente nuboso 579 m
2018/06/25 16:56 KSFO 251656Z 04004KT 10SM FEW016 SCT019 20/12 A2997 RMK AO2 SLP148 T02000122
KE16 - San Martin, California, USA
Distance from station: ESE 43km
Actualización: 25/06/2018 10:10
Cubierto
Cubierto
 Viento del SSE
Viento: SSE 17 km/h
Temperatura: 17°C
Rocío: 12°C
Humedad: 73%
Barómetro: 1016.6 hPa
Clouds: Cubierto
Visibility: 16 km
Cloud details: Cubierto 457 m
2018/06/25 17:10 KE16 251710Z AUTO 16009KT 10SM OVC015 17/12 A3002 RMK AO2
 
KWVI - Watsonville, California, USA
Distance from station: SSE 44km
Actualización: 25/06/2018 09:53
Cubierto
Cubierto
 Viento del SO
Viento: SO 15 km/h
Temperatura: 16°C
Rocío: 13°C
Humedad: 83%
Barómetro: 1016.6 hPa
Clouds: Cubierto
Visibility: 16 km
Cloud details: Few Clouds 335 m
Cubierto 518 m
2018/06/25 16:53 KWVI 251653Z AUTO 22008KT 10SM FEW011 OVC017 16/13 A3002 RMK AO2 SLP165 T01610128
KHAF - Half Moon Bay, California, USA
Distance from station: ONO 50km
Actualización: 25/06/2018 10:20
Cubierto
Cubierto
 Viento del SSE
Viento: SSE 17 km/h
Temperatura: 14°C
Rocío: 13°C
Humedad: 94%
Barómetro: 1016.6 hPa
Clouds: Cubierto
Visibility: 11 km
Cloud details: Cubierto 183 m
2018/06/25 17:20 KHAF 251720Z AUTO 16009KT 7SM OVC006 14/13 A3002 RMK AO2
 
KHWD - Hayward, California, USA
Distance from station: N 44km
Actualización: 25/06/2018 09:54
Cubierto
Cubierto
 Viento del O
Viento: O 20 km/h
Temperatura: 18°C
Rocío: 13°C
Humedad: 73%
Barómetro: 1015.2 hPa
Clouds: Cubierto
Visibility: 16 km
Cloud details: Cubierto 640 m
2018/06/25 16:54 KHWD 251654Z 28011KT 10SM OVC021 18/13 A2998 RMK AO2 SLP161 T01830128
KLVK - Livermore, California, USA
Distance from station: NNE 51km
Actualización: 25/06/2018 10:06
Parcialmente nuboso
Parcialmente nuboso
 Viento del O
Viento: O 17 km/h
Temperatura: 19°C
Rocío: 12°C
Humedad: 64%
Barómetro: 1014.6 hPa
Clouds: Parcialmente nuboso
Visibility: 16 km
Cloud details: Parcialmente nuboso 518 m
2018/06/25 17:06 KLVK 251706Z 28009KT 10SM SCT017 19/12 A2996 RMK AO2 T01890122